createdAt,value
2018-08-20T00:01:47.391Z,21.40
2018-08-20T00:04:23.197Z,21.37
2018-08-20T00:13:29.774Z,18.90
2018-08-20T00:20:19.666Z,17.30
2018-08-20T00:28:59.149Z,14.70
2018-08-20T00:31:34.048Z,15.58
2018-08-20T00:34:08.886Z,16.42
2018-08-20T00:36:47.501Z,16.27
2018-08-20T00:39:22.228Z,17.80
2018-08-20T00:41:56.962Z,19.23
2018-08-20T00:44:31.707Z,19.07
2018-08-20T00:47:06.530Z,20.37
2018-08-20T00:49:41.247Z,21.80
2018-08-20T00:52:16.005Z,21.80
2018-08-20T00:54:50.731Z,21.27
2018-08-20T00:57:25.508Z,21.90
2018-08-20T01:00:00.353Z,22.65
2018-08-20T01:02:35.121Z,21.10
2018-08-20T01:05:09.923Z,21.15
2018-08-20T01:07:44.772Z,21.77
2018-08-20T01:10:19.499Z,20.27
2018-08-20T01:12:55.321Z,20.17
2018-08-20T01:15:30.108Z,18.52
2018-08-20T01:18:05.011Z,16.73
2018-08-20T01:20:39.736Z,16.52
2018-08-20T01:23:15.512Z,15.00
2018-08-20T01:25:50.260Z,11.93
2018-08-20T01:28:25.061Z,11.43
2018-08-20T01:30:59.841Z,10.45
2018-08-20T01:33:34.650Z,10.70
2018-08-20T01:36:09.424Z,10.93
2018-08-20T01:38:44.265Z,11.45
2018-08-20T01:41:19.987Z,10.25
2018-08-20T01:43:54.813Z,9.85
2018-08-20T01:46:30.602Z,10.30
2018-08-20T01:49:06.445Z,9.95
2018-08-20T01:51:41.323Z,10.25
2018-08-20T01:54:16.097Z,10.38
2018-08-20T01:56:50.828Z,9.78
2018-08-20T01:59:25.650Z,10.78
2018-08-20T02:02:00.528Z,9.90
2018-08-20T02:04:35.351Z,10.72
2018-08-20T02:07:10.100Z,9.88
2018-08-20T02:09:45.112Z,10.90
2018-08-20T02:12:19.896Z,10.53
2018-08-20T02:14:54.692Z,10.70
2018-08-20T02:17:30.777Z,10.78
2018-08-20T02:20:06.174Z,10.05
2018-08-20T02:22:40.933Z,10.43
2018-08-20T02:25:16.753Z,10.88
2018-08-20T02:27:51.494Z,10.68
2018-08-20T02:30:26.260Z,9.95
2018-08-20T02:33:01.046Z,10.53
2018-08-20T02:35:35.847Z,10.20
2018-08-20T02:38:10.799Z,10.13
2018-08-20T02:40:45.568Z,10.43
2018-08-20T02:43:20.300Z,10.23
2018-08-20T02:45:56.101Z,10.80
2018-08-20T02:48:30.904Z,9.95
2018-08-20T02:51:05.693Z,10.48
2018-08-20T02:53:41.412Z,10.93
2018-08-20T02:56:16.179Z,11.22
2018-08-20T02:58:50.887Z,11.33
2018-08-20T03:01:25.649Z,10.88
2018-08-20T03:04:00.374Z,10.58
2018-08-20T03:06:35.262Z,10.43
2018-08-20T03:09:16.531Z,10.82
2018-08-20T03:11:51.286Z,9.08
2018-08-20T03:14:26.067Z,10.28
2018-08-20T03:17:00.853Z,9.78
2018-08-20T03:19:35.589Z,8.83
2018-08-20T03:22:10.367Z,9.83
2018-08-20T03:24:45.077Z,9.33
2018-08-20T03:27:19.874Z,9.65
2018-08-20T03:29:54.652Z,9.80
2018-08-20T03:32:29.363Z,7.97
2018-08-20T03:35:04.292Z,8.00
2018-08-20T03:37:39.480Z,7.80
2018-08-20T03:40:29.681Z,7.80
2018-08-20T03:43:04.507Z,7.47
2018-08-20T03:45:39.502Z,5.92
2018-08-20T03:48:15.296Z,4.80
2018-08-20T03:50:50.042Z,3.90
2018-08-20T03:53:24.821Z,4.15
2018-08-20T03:55:59.571Z,4.70
2018-08-20T03:58:34.344Z,4.67
2018-08-20T04:01:09.151Z,5.50
2018-08-20T04:03:43.895Z,6.65
2018-08-20T04:06:18.623Z,6.72
2018-08-20T04:08:53.436Z,7.80
2018-08-20T04:11:28.155Z,8.33
2018-08-20T04:14:02.938Z,8.03
2018-08-20T04:16:37.651Z,10.08
2018-08-20T04:19:12.404Z,9.98
2018-08-20T04:21:47.243Z,10.43
2018-08-20T04:24:22.027Z,11.03
2018-08-20T04:26:56.725Z,10.50
2018-08-20T04:29:31.457Z,10.23
2018-08-20T04:32:06.579Z,9.68
2018-08-20T04:34:42.372Z,10.53
2018-08-20T04:37:17.108Z,9.90
2018-08-20T04:39:51.863Z,9.93
2018-08-20T04:42:26.590Z,10.32
2018-08-20T04:45:01.388Z,11.12
2018-08-20T04:47:37.201Z,11.10
2018-08-20T04:50:13.070Z,10.15
2018-08-20T04:52:47.974Z,9.63
2018-08-20T04:55:23.754Z,10.48
2018-08-20T04:57:58.481Z,10.28
2018-08-20T05:00:34.247Z,9.95
2018-08-20T05:03:13.786Z,10.55
2018-08-20T05:05:48.504Z,9.03
2018-08-20T05:08:23.191Z,8.55
2018-08-20T05:10:57.922Z,9.20
2018-08-20T05:13:32.654Z,8.80
2018-08-20T05:16:08.467Z,8.25
2018-08-20T05:18:43.248Z,8.08
2018-08-20T05:21:18.041Z,8.63
2018-08-20T05:23:52.780Z,8.55
2018-08-20T05:26:27.555Z,7.62
2018-08-20T05:29:02.248Z,7.28
2018-08-20T05:31:37.001Z,8.13
2018-08-20T05:34:12.004Z,8.15
2018-08-20T05:36:47.617Z,8.20
2018-08-20T05:39:22.322Z,8.60
2018-08-20T05:41:57.046Z,8.10
2018-08-20T05:44:31.716Z,7.85
2018-08-20T05:47:07.540Z,8.73
2018-08-20T05:49:42.251Z,9.08
2018-08-20T05:52:17.068Z,9.58
2018-08-20T05:54:51.780Z,9.53
2018-08-20T05:57:26.515Z,9.53
2018-08-20T06:00:01.288Z,9.63
2018-08-20T06:02:36.050Z,9.90
2018-08-20T06:05:11.065Z,9.80
2018-08-20T06:07:46.894Z,9.25
2018-08-20T06:10:22.147Z,9.35
2018-08-20T06:12:56.895Z,9.73
2018-08-20T06:15:31.695Z,9.70
2018-08-20T06:18:06.728Z,9.15
2018-08-20T06:20:41.832Z,9.45
2018-08-20T06:23:16.951Z,10.60
2018-08-20T06:25:51.720Z,10.55
2018-08-20T06:28:26.557Z,11.33
2018-08-20T06:31:01.532Z,11.63
2018-08-20T06:33:37.290Z,10.48
2018-08-20T06:36:13.126Z,11.03
2018-08-20T06:38:48.000Z,10.08
2018-08-20T06:41:22.762Z,9.50
2018-08-20T06:43:57.575Z,8.50
2018-08-20T06:46:32.334Z,8.15
2018-08-20T06:49:08.181Z,7.87
2018-08-20T06:51:42.890Z,7.20
2018-08-20T06:54:17.612Z,7.12
2018-08-20T06:56:52.371Z,7.22
2018-08-20T06:59:27.092Z,7.55
2018-08-20T07:02:02.835Z,6.80
2018-08-20T07:04:38.569Z,6.35
2018-08-20T07:07:14.405Z,6.85
2018-08-20T07:09:51.869Z,5.62
2018-08-20T07:12:26.625Z,5.72
2018-08-20T07:15:01.718Z,5.70
2018-08-20T07:17:36.824Z,6.17
2018-08-20T07:20:13.317Z,5.90
2018-08-20T07:22:48.046Z,5.90
2018-08-20T07:25:23.561Z,5.45
2018-08-20T07:27:59.072Z,6.37
2018-08-20T07:30:49.476Z,6.33
2018-08-20T07:33:27.769Z,7.00
2018-08-20T07:36:06.891Z,6.55
2018-08-20T07:38:48.784Z,7.20
2018-08-20T07:41:25.952Z,6.87
2018-08-20T07:44:03.154Z,6.30
2018-08-20T07:46:46.954Z,5.97
2018-08-20T07:49:29.269Z,5.35
2018-08-20T07:52:05.318Z,5.08
2018-08-20T07:54:41.329Z,4.62
2018-08-20T07:57:16.140Z,4.40
2018-08-20T07:59:51.913Z,4.25
2018-08-20T08:02:27.642Z,4.70
2018-08-20T08:05:02.416Z,4.70
2018-08-20T08:07:37.345Z,4.37
2018-08-20T08:10:15.260Z,3.27
2018-08-20T08:12:50.089Z,2.75
2018-08-20T08:15:25.833Z,2.70
2018-08-20T08:18:00.555Z,2.47
2018-08-20T08:20:35.367Z,2.47
2018-08-20T08:23:10.454Z,2.05
2018-08-20T08:25:45.205Z,2.17
2018-08-20T08:28:19.914Z,1.90
2018-08-20T08:30:57.908Z,1.95
2018-08-20T08:33:33.614Z,1.90
2018-08-20T08:36:10.827Z,2.67
2018-08-20T08:38:46.163Z,2.47
2018-08-20T08:41:28.676Z,2.92
2018-08-20T08:44:06.020Z,2.27
2018-08-20T08:46:49.615Z,2.35
2018-08-20T08:49:29.030Z,2.85
2018-08-20T08:52:06.414Z,2.87
2018-08-20T08:54:53.197Z,2.50
2018-08-20T08:57:32.239Z,2.42
2018-08-20T09:00:19.400Z,2.40
2018-08-20T09:02:54.222Z,2.10
2018-08-20T09:05:30.313Z,2.37
2018-08-20T09:08:05.142Z,2.67
2018-08-20T09:10:39.861Z,1.98
2018-08-20T09:13:15.627Z,1.95
2018-08-20T09:15:50.349Z,1.82
2018-08-20T09:18:26.136Z,2.10
2018-08-20T09:21:00.878Z,1.90
2018-08-20T09:23:35.620Z,1.52
2018-08-20T09:26:11.740Z,1.60
2018-08-20T09:28:47.467Z,1.52
2018-08-20T09:31:22.233Z,1.40
2018-08-20T09:33:56.956Z,1.55
2018-08-20T09:36:31.748Z,1.00
2018-08-20T09:39:07.261Z,1.10
2018-08-20T09:41:42.064Z,1.15
2018-08-20T09:44:17.113Z,0.95
2018-08-20T09:46:51.867Z,0.88
2018-08-20T09:49:26.616Z,0.50
2018-08-20T09:52:01.306Z,0.55
2018-08-20T09:54:37.048Z,0.70
2018-08-20T09:57:11.779Z,0.55
2018-08-20T09:59:56.350Z,0.40
2018-08-20T10:02:50.888Z,0.70
2018-08-20T10:05:26.613Z,0.65
2018-08-20T10:08:08.889Z,0.78
2018-08-20T10:10:59.843Z,0.68
2018-08-20T10:13:45.534Z,0.82
2018-08-20T10:16:22.954Z,0.55
2018-08-20T10:19:04.783Z,0.30
2018-08-20T10:21:43.367Z,0.30
2018-08-20T10:24:21.051Z,0.30
2018-08-20T10:27:01.783Z,0.35
2018-08-20T10:29:39.423Z,0.40
2018-08-20T10:32:16.623Z,0.30
2018-08-20T10:35:02.388Z,0.40
2018-08-20T10:37:42.621Z,0.30
2018-08-20T10:40:25.375Z,0.33
2018-08-20T10:43:00.620Z,0.20
2018-08-20T10:45:49.955Z,0.20
2018-08-20T10:48:35.048Z,0.20
2018-08-20T10:51:10.349Z,0.53
2018-08-20T10:53:45.246Z,0.37
2018-08-20T10:56:20.220Z,0.40
2018-08-20T10:58:55.715Z,0.37
2018-08-20T11:01:31.477Z,0.50
2018-08-20T11:04:08.167Z,0.47
2018-08-20T11:06:43.926Z,0.50
2018-08-20T11:09:20.111Z,0.47
2018-08-20T11:12:01.385Z,0.50
2018-08-20T11:14:38.258Z,0.30
2018-08-20T11:17:15.096Z,0.80
2018-08-20T11:19:50.841Z,0.60
2018-08-20T11:22:25.799Z,0.60
2018-08-20T11:25:00.528Z,0.57
2018-08-20T11:27:36.595Z,0.55
2018-08-20T11:30:12.942Z,0.62
2018-08-20T11:32:47.833Z,0.70
2018-08-20T11:35:22.580Z,0.50
2018-08-20T11:37:57.336Z,0.30
2018-08-20T11:40:32.017Z,0.60
2018-08-20T11:43:07.630Z,0.53
2018-08-20T11:45:42.527Z,0.88
2018-08-20T11:48:17.297Z,0.60
2018-08-20T11:50:52.120Z,0.72
2018-08-20T11:53:26.876Z,0.47
2018-08-20T11:56:01.594Z,0.65
2018-08-20T11:58:40.667Z,0.62
2018-08-20T12:01:15.440Z,0.65
2018-08-20T12:04:06.758Z,0.75
2018-08-20T12:06:56.945Z,0.93
2018-08-20T12:09:46.652Z,0.70
2018-08-20T12:12:21.483Z,0.68
2018-08-20T12:14:57.273Z,0.57
2018-08-20T12:17:32.324Z,0.60
2018-08-20T12:20:07.889Z,0.72
2018-08-20T12:22:43.645Z,0.70
2018-08-20T12:25:18.344Z,1.22
2018-08-20T12:27:53.098Z,0.62
2018-08-20T12:30:27.813Z,0.80
2018-08-20T12:33:03.629Z,0.55
2018-08-20T12:35:38.368Z,0.68
2018-08-20T12:38:13.029Z,0.70
2018-08-20T12:40:47.779Z,0.90
2018-08-20T12:43:23.483Z,0.60
2018-08-20T12:45:59.317Z,0.80
2018-08-20T12:48:34.071Z,0.80
2018-08-20T12:51:08.824Z,0.90
2018-08-20T12:53:43.581Z,0.80
2018-08-20T12:56:18.329Z,0.90
2018-08-20T12:58:53.817Z,0.75
2018-08-20T13:01:29.519Z,0.57
2018-08-20T13:04:04.312Z,0.62
2018-08-20T13:06:39.084Z,1.07
2018-08-20T13:09:13.848Z,0.70
2018-08-20T13:11:48.578Z,0.88
2018-08-20T13:14:23.336Z,1.30
2018-08-20T13:16:58.085Z,0.82
2018-08-20T13:19:32.783Z,1.10
2018-08-20T13:22:07.632Z,1.00
2018-08-20T13:24:42.364Z,0.75
2018-08-20T13:27:17.120Z,0.60
2018-08-20T13:29:51.827Z,0.98
2018-08-20T13:32:26.574Z,0.80
2018-08-20T13:35:01.325Z,0.70
2018-08-20T13:37:36.140Z,0.70
2018-08-20T13:40:16.850Z,0.70
2018-08-20T13:42:51.616Z,0.88
2018-08-20T13:45:26.374Z,0.90
2018-08-20T13:48:01.173Z,0.80
2018-08-20T13:50:36.913Z,0.70
2018-08-20T13:53:12.725Z,1.02
2018-08-20T13:55:47.494Z,0.70
2018-08-20T13:58:22.455Z,0.85
2018-08-20T14:00:57.289Z,0.72
2018-08-20T14:03:32.312Z,0.90
2018-08-20T14:06:07.627Z,0.90
2018-08-20T14:08:42.373Z,1.00
2018-08-20T14:11:17.105Z,0.90
2018-08-20T14:13:51.776Z,0.90
2018-08-20T14:16:26.531Z,1.25
2018-08-20T14:19:01.325Z,1.10
2018-08-20T14:21:36.119Z,1.00
2018-08-20T14:24:10.972Z,1.25
2018-08-20T14:26:45.715Z,1.40
2018-08-20T14:29:21.469Z,1.00
2018-08-20T14:31:57.212Z,1.12
2018-08-20T14:34:31.917Z,1.27
2018-08-20T14:37:15.431Z,1.00
2018-08-20T14:42:43.406Z,0.88
2018-08-20T14:45:18.125Z,0.90
2018-08-20T14:47:52.972Z,1.02
2018-08-20T14:50:28.866Z,1.07
2018-08-20T14:53:03.653Z,1.20
2018-08-20T14:55:39.400Z,1.12
2018-08-20T14:58:15.204Z,1.22
2018-08-20T15:00:49.961Z,1.27
2018-08-20T15:03:24.782Z,1.12
2018-08-20T15:05:59.489Z,1.22
2018-08-20T15:08:37.435Z,1.32
2018-08-20T15:11:12.177Z,1.00
2018-08-20T15:13:46.916Z,0.90
2018-08-20T15:16:21.631Z,1.05
2018-08-20T15:18:56.376Z,1.07
2018-08-20T15:21:31.140Z,0.85
2018-08-20T15:24:05.908Z,0.90
2018-08-20T15:26:40.669Z,0.90
2018-08-20T15:29:15.499Z,1.55
2018-08-20T15:31:50.295Z,1.67
2018-08-20T15:34:26.031Z,0.80
2018-08-20T15:37:01.783Z,1.25
2018-08-20T15:39:36.731Z,1.00
2018-08-20T15:42:11.607Z,0.82
2018-08-20T15:44:46.361Z,1.10
2018-08-20T15:47:21.083Z,1.22
2018-08-20T15:49:55.836Z,0.70
2018-08-20T15:52:30.570Z,0.88
2018-08-20T15:55:06.168Z,0.85
2018-08-20T15:57:40.892Z,0.85
2018-08-20T16:00:15.908Z,0.95
2018-08-20T16:02:50.686Z,1.00
2018-08-20T16:05:25.500Z,0.80
2018-08-20T16:08:00.265Z,1.42
2018-08-20T16:10:35.031Z,1.07
2018-08-20T16:13:10.761Z,0.98
2018-08-20T16:15:45.883Z,0.82
2018-08-20T16:18:21.649Z,0.90
2018-08-20T16:20:57.539Z,0.90
2018-08-20T16:23:32.258Z,1.02
2018-08-20T16:26:07.203Z,1.07
2018-08-20T16:28:41.862Z,0.80
2018-08-20T16:31:16.628Z,1.10
2018-08-20T16:33:55.968Z,1.17
2018-08-20T16:36:30.696Z,0.68
2018-08-20T16:39:09.506Z,0.95
2018-08-20T16:41:44.259Z,1.05
2018-08-20T16:44:23.606Z,1.05
2018-08-20T16:46:58.419Z,1.00
2018-08-20T16:49:33.171Z,1.00
2018-08-20T16:52:08.973Z,1.00
2018-08-20T16:54:43.682Z,1.15
2018-08-20T16:57:18.428Z,0.98
2018-08-20T16:59:53.355Z,0.98
2018-08-20T17:02:29.495Z,0.70
2018-08-20T17:05:04.360Z,0.90
2018-08-20T17:07:39.513Z,1.00
2018-08-20T17:10:15.256Z,1.30
2018-08-20T17:12:49.964Z,1.15
2018-08-20T17:15:24.693Z,0.85
2018-08-20T17:17:59.486Z,1.40
2018-08-20T17:20:34.213Z,1.07
2018-08-20T17:23:19.231Z,0.82
2018-08-20T17:25:56.251Z,1.10
2018-08-20T17:28:31.062Z,1.05
2018-08-20T17:31:12.951Z,0.88
2018-08-20T17:33:48.000Z,1.50
2018-08-20T17:36:24.572Z,0.90
2018-08-20T17:39:01.715Z,1.05
2018-08-20T17:41:36.960Z,1.00
2018-08-20T17:44:12.750Z,1.02
2018-08-20T17:46:47.518Z,0.90
2018-08-20T17:49:29.148Z,1.00
2018-08-20T17:52:03.902Z,1.05
2018-08-20T17:54:39.644Z,1.27
2018-08-20T17:57:14.422Z,0.95
2018-08-20T17:59:49.167Z,1.65
2018-08-20T18:02:23.997Z,1.00
2018-08-20T18:04:59.850Z,1.00
2018-08-20T18:07:34.572Z,0.80
2018-08-20T18:10:09.378Z,0.90
2018-08-20T18:12:44.092Z,1.20
2018-08-20T18:15:20.248Z,0.75
2018-08-20T18:17:54.942Z,1.00
2018-08-20T18:20:34.848Z,1.10
2018-08-20T18:23:09.555Z,0.90
2018-08-20T18:25:44.291Z,0.80
2018-08-20T18:28:20.029Z,0.90
2018-08-20T18:31:00.081Z,0.72
2018-08-20T18:33:35.816Z,0.70
2018-08-20T18:36:14.429Z,0.95
2018-08-20T18:42:07.309Z,1.00
2018-08-20T18:44:43.156Z,1.00
2018-08-20T18:47:25.919Z,0.93
2018-08-20T18:50:01.207Z,1.40
2018-08-20T18:52:35.938Z,1.20
2018-08-20T18:55:10.749Z,1.10
2018-08-20T18:57:59.679Z,1.20
2018-08-20T19:00:43.067Z,0.88
2018-08-20T19:03:27.186Z,1.30
2018-08-20T19:06:10.928Z,0.90
2018-08-20T19:08:45.836Z,0.90
2018-08-20T19:11:20.540Z,1.00
2018-08-20T19:13:59.388Z,1.00
2018-08-20T19:16:37.075Z,1.00
2018-08-20T19:19:11.879Z,1.00
2018-08-20T19:21:47.665Z,1.10
2018-08-20T19:24:23.131Z,1.02
2018-08-20T19:27:01.077Z,0.90
2018-08-20T19:29:36.070Z,1.05
2018-08-20T19:32:11.893Z,0.70
2018-08-20T19:34:46.611Z,0.62
2018-08-20T19:37:21.351Z,0.70
2018-08-20T19:39:56.124Z,0.85
2018-08-20T19:42:34.365Z,0.62
2018-08-20T19:45:13.023Z,0.72
2018-08-20T19:47:48.937Z,0.80
2018-08-20T19:50:27.330Z,0.88
2018-08-20T19:53:26.983Z,0.80
2018-08-20T19:56:04.621Z,0.60
2018-08-20T19:58:44.397Z,0.88
2018-08-20T20:01:25.854Z,0.90
2018-08-20T20:04:01.699Z,0.70
2018-08-20T20:06:38.075Z,0.85
2018-08-20T20:09:16.686Z,0.78
2018-08-20T20:11:56.963Z,0.85
2018-08-20T20:14:39.148Z,0.80
2018-08-20T20:17:15.650Z,0.93
2018-08-20T20:19:51.941Z,0.53
2018-08-20T20:22:27.500Z,0.60
2018-08-20T20:25:02.201Z,0.90
2018-08-20T20:27:37.000Z,1.00
2018-08-20T20:30:11.731Z,0.85
2018-08-20T20:32:46.513Z,0.75
2018-08-20T20:35:21.998Z,0.80
2018-08-20T20:37:56.889Z,0.70
2018-08-20T20:40:39.669Z,0.90
2018-08-20T20:43:15.984Z,0.80
2018-08-20T20:45:51.667Z,1.05
2018-08-20T20:48:26.395Z,0.80
2018-08-20T20:51:01.624Z,0.88
2018-08-20T20:53:36.508Z,0.60
2018-08-20T20:56:12.392Z,0.50
2018-08-20T20:58:47.151Z,0.80
2018-08-20T21:01:22.932Z,1.32
2018-08-20T21:04:09.771Z,0.78
2018-08-20T21:06:45.252Z,0.68
2018-08-20T21:09:25.622Z,1.02
2018-08-20T21:12:05.276Z,0.60
2018-08-20T21:14:43.432Z,1.00
2018-08-20T21:17:18.259Z,0.68
2018-08-20T21:19:54.824Z,0.80
2018-08-20T21:22:30.046Z,0.72
2018-08-20T21:25:06.047Z,0.70
2018-08-20T21:27:42.674Z,1.17
2018-08-20T21:30:18.493Z,0.93
2018-08-20T21:32:56.473Z,0.93
2018-08-20T21:35:35.684Z,1.00
2018-08-20T21:38:12.255Z,1.00
2018-08-20T21:40:47.084Z,0.80
2018-08-20T21:43:25.688Z,0.90
2018-08-20T21:46:04.537Z,1.02
2018-08-20T21:48:39.864Z,0.70
2018-08-20T21:51:25.887Z,0.98
2018-08-20T21:54:04.368Z,0.98
2018-08-20T21:56:54.784Z,0.95
2018-08-20T21:59:33.336Z,1.00
2018-08-20T22:02:08.565Z,0.62
2018-08-20T22:04:47.280Z,0.85
2018-08-20T22:07:29.145Z,0.80
2018-08-20T22:10:06.119Z,1.00
2018-08-20T22:12:45.924Z,1.10
2018-08-20T22:15:22.112Z,1.00
2018-08-20T22:18:07.422Z,0.80
2018-08-20T22:20:44.584Z,0.72
2018-08-20T22:23:25.371Z,0.85
2018-08-20T22:25:57.729Z,0.70
2018-08-20T22:28:32.456Z,0.80
2018-08-20T22:31:07.575Z,1.05
2018-08-20T22:33:42.306Z,0.93
2018-08-20T22:36:17.063Z,0.85
2018-08-20T22:38:53.449Z,0.53
2018-08-20T22:41:29.355Z,0.60
2018-08-20T22:44:04.162Z,0.80
2018-08-20T22:46:38.933Z,0.60
2018-08-20T22:49:13.652Z,0.80
2018-08-20T22:51:48.442Z,1.00
2018-08-20T22:54:24.185Z,1.10
2018-08-20T22:56:58.992Z,0.82
2018-08-20T22:59:33.695Z,0.70
2018-08-20T23:02:08.470Z,0.90
2018-08-20T23:04:47.842Z,0.93
2018-08-20T23:07:24.873Z,0.75
2018-08-20T23:09:59.635Z,0.53
2018-08-20T23:12:39.518Z,0.90
2018-08-20T23:15:14.721Z,0.60
2018-08-20T23:17:50.917Z,0.82
2018-08-20T23:20:29.977Z,1.00
2018-08-20T23:23:04.736Z,0.80
2018-08-20T23:25:39.548Z,0.78
2018-08-20T23:28:14.308Z,0.70
2018-08-20T23:30:53.426Z,0.50
2018-08-20T23:33:29.669Z,0.60
2018-08-20T23:36:04.770Z,0.80
2018-08-20T23:38:39.700Z,0.90
2018-08-20T23:41:14.532Z,0.70
2018-08-20T23:43:54.361Z,0.60
2018-08-20T23:46:49.463Z,0.80
2018-08-20T23:49:24.209Z,0.80
2018-08-20T23:51:58.941Z,0.40
2018-08-20T23:54:33.707Z,0.68
2018-08-20T23:57:09.455Z,0.60
2018-08-20T23:59:44.189Z,0.62
